Ifestos I — SV4139 — position and weather

sailwx.info

Track history (hours):
 
Tides and Currents Weather Stations Pressure Air Temp Water Temp Dewpoint Dewpoint Depression Visibility Wind Speed Wind Dir Waves Ship Positions

Ifestos I

Last reported at 2017-Jun-22 14:22 UTC. Time now 2017-Jun-22 22:26 UTC.
Position N 37°57' E 023°36'.

Length 30 m.

Type: Tug. MMSI: 237070500.

Date/timePositionNaut miles runAvg speedWind from/ knotsBaromVisibWave heightAir tempDewpointWater temp
2017-Jun-22 14:22N 37°57' E 023°36'0 0.0
2017-Jun-22 13:30N 37°57' E 023°36'0 0.0
2017-Jun-22 13:00N 37°57' E 023°36'0 0.0
2017-Jun-22 12:30N 37°57' E 023°36'0 0.0
2017-Jun-22 12:00N 37°57' E 023°36'0 0.0
2017-Jun-22 11:30N 37°57' E 023°36'0 0.0
2017-Jun-22 11:00N 37°57' E 023°36'0 0.6
2017-Jun-22 10:30N 37°58' E 023°37'0 0.9
2017-Jun-22 10:00N 37°57' E 023°36'0 0.4
2017-Jun-22 09:30N 37°57' E 023°36'0 0.5
2017-Jun-22 09:00N 37°57' E 023°36'0 0.0
2017-Jun-22 08:30N 37°57' E 023°36'0 0.0
2017-Jun-22 08:00N 37°57' E 023°36'0 0.0
2017-Jun-22 07:30N 37°57' E 023°36'0 0.0
2017-Jun-22 07:00N 37°57' E 023°36'0 0.0
2017-Jun-22 06:30N 37°57' E 023°36'0 0.7
2017-Jun-22 06:00N 37°58' E 023°36'1 2.8
2017-Jun-22 05:30N 37°56' E 023°36'1 2.8
2017-Jun-22 05:00N 37°58' E 023°36'2 3.2
2017-Jun-22 04:30N 37°56' E 023°36'1 2.2
2017-Jun-22 04:00N 37°57' E 023°35'0 0.6
2017-Jun-22 03:30N 37°57' E 023°35'1 1.6
2017-Jun-22 03:00N 37°57' E 023°36'0 0.0
2017-Jun-22 02:30N 37°57' E 023°36'0 0.0
2017-Jun-22 02:00N 37°57' E 023°36'0 0.0
2017-Jun-21 14:57N 37°57' E 023°36'0 0.0
2017-Jun-21 14:30N 37°57' E 023°36'0 0.0
2017-Jun-21 13:30N 37°57' E 023°36'0 0.0
2017-Jun-21 13:00N 37°57' E 023°36'0 0.0
2017-Jun-21 12:30N 37°57' E 023°36'0 0.0
2017-Jun-21 12:00N 37°57' E 023°36'0 0.0
2017-Jun-21 11:30N 37°57' E 023°36'1 1.4
2017-Jun-21 11:00N 37°57' E 023°37'0 0.3
2017-Jun-21 10:30N 37°57' E 023°37'0 0.0
2017-Jun-21 10:00N 37°57' E 023°37'0 0.0
2017-Jun-21 09:30N 37°57' E 023°37'0 0.0
2017-Jun-21 09:00N 37°57' E 023°37'0 0.0
2017-Jun-21 08:30N 37°57' E 023°37'0 0.0
2017-Jun-21 08:00N 37°57' E 023°37'0 0.1
2017-Jun-21 07:30N 37°57' E 023°37'0 0.0
2017-Jun-21 07:00N 37°57' E 023°37'0 0.0
2017-Jun-21 06:30N 37°57' E 023°37'0 0.0
2017-Jun-21 06:00N 37°57' E 023°37'0 0.8
2017-Jun-21 05:30N 37°57' E 023°36'0 1.0
2017-Jun-21 05:00N 37°57' E 023°36'1 1.1
2017-Jun-21 04:30N 37°57' E 023°36'0 0.0
2017-Jun-21 04:00N 37°57' E 023°36'0 0.1
2017-Jun-21 03:30N 37°57' E 023°36'0 0.0
2017-Jun-21 03:00N 37°57' E 023°36'0 0.0
2017-Jun-21 02:30N 37°57' E 023°36'0 0.0
2017-Jun-21 02:00N 37°57' E 023°36'0 0.0
2017-Jun-21 01:30N 37°57' E 023°36'0 0.0
2017-Jun-21 01:00N 37°57' E 023°36'0 0.0
2017-Jun-21 00:30N 37°57' E 023°36'0 0.0
2017-Jun-21 00:00N 37°57' E 023°36'0 0.0
2017-Jun-20 23:30N 37°57' E 023°36'0 0.0
2017-Jun-20 23:00N 37°57' E 023°36'0 0.0
2017-Jun-20 22:30N 37°57' E 023°36'0 0.0
2017-Jun-20 22:00N 37°57' E 023°36'0 0.0
2017-Jun-20 21:30N 37°57' E 023°36'0 0.0
2017-Jun-20 21:00N 37°57' E 023°36'0 0.0
2017-Jun-20 20:30N 37°57' E 023°36'0 0.0
2017-Jun-20 20:00N 37°57' E 023°36'0 0.0
2017-Jun-20 19:30N 37°57' E 023°36'3 6.4
2017-Jun-20 19:00N 37°59' E 023°33'4 8.2
2017-Jun-20 18:30N 38°00' E 023°28'4 7.4
2017-Jun-20 18:00N 37°58' E 023°25'2 3.4
2017-Jun-20 17:30N 37°58' E 023°23'0 0.0
2017-Jun-20 17:00N 37°58' E 023°23'2 3.3
2017-Jun-20 16:30N 37°59' E 023°25'4 8.3
2017-Jun-20 16:01N 38°01' E 023°30'4 7.1
2017-Jun-20 15:30N 37°58' E 023°33'3 5.6
2017-Jun-20 14:59N 37°57' E 023°36'0 0.0
2017-Jun-20 14:28N 37°57' E 023°36'0 0.0
2017-Jun-20 13:30N 37°57' E 023°36'0 0.0
2017-Jun-20 13:00N 37°57' E 023°36'0 0.0
2017-Jun-20 12:27N 37°57' E 023°36'1 2.0
2017-Jun-20 12:00N 37°57' E 023°35'1 2.1
2017-Jun-20 11:30N 37°56' E 023°35'1 2.3
2017-Jun-20 11:00N 37°56' E 023°36'2 2.4
2017-Jun-20 10:22N 37°57' E 023°36'0 0.0
2017-Jun-20 10:00N 37°57' E 023°36'0 0.0
2017-Jun-20 09:25N 37°57' E 023°36'3 7.0
2017-Jun-20 09:00N 37°58' E 023°33'2 3.6
2017-Jun-20 08:30N 37°60' E 023°34'0 0.5
2017-Jun-20 08:00N 37°60' E 023°34'0 0.2
2017-Jun-20 07:30N 37°60' E 023°34'2 3.4
2017-Jun-20 07:00N 37°58' E 023°33'3 5.5
2017-Jun-20 06:30N 37°57' E 023°36'0 0.8
2017-Jun-20 05:57N 37°57' E 023°36'0 0.0
2017-Jun-20 05:26N 37°57' E 023°36'0 0.0
2017-Jun-20 04:59N 37°57' E 023°36'1 2.0
2017-Jun-20 04:30N 37°57' E 023°35'0 0.4
2017-Jun-20 04:00N 37°57' E 023°35'0 0.6
2017-Jun-20 03:30N 37°57' E 023°35'1 1.8
2017-Jun-20 03:00N 37°57' E 023°36'0 0.0
2017-Jun-18 21:57N 37°57' E 023°36'0 0.0
2017-Jun-18 21:30N 37°57' E 023°36'0 0.0
2017-Jun-18 21:00N 37°57' E 023°36'0 0.0
2017-Jun-18 20:30N 37°57' E 023°36'0 0.0
2017-Jun-18 20:00N 37°57' E 023°36'0 0.0
2017-Jun-18 19:30N 37°57' E 023°36'0 0.9
2017-Jun-18 19:00N 37°57' E 023°36'0 0.1
2017-Jun-18 18:30N 37°57' E 023°36'1 2.0
2017-Jun-18 18:00N 37°56' E 023°36'1 1.8
2017-Jun-18 17:30N 37°57' E 023°35'0 0.6
2017-Jun-18 17:00N 37°57' E 023°35'1 1.8
2017-Jun-18 16:30N 37°57' E 023°36'0 0.0
2017-Jun-18 16:00N 37°57' E 023°36'0 0.0
2017-Jun-18 15:30N 37°57' E 023°36'0 0.0
2017-Jun-18 15:00N 37°57' E 023°36'0 0.0
2017-Jun-18 14:30N 37°57' E 023°36'1 1.5
2017-Jun-18 14:00N 37°57' E 023°35'1 1.5
2017-Jun-18 13:30N 37°57' E 023°36'0 0.0
2017-Jun-18 13:00N 37°57' E 023°36'0 0.0
2017-Jun-18 12:30N 37°57' E 023°36'0 0.9
2017-Jun-18 12:00N 37°57' E 023°36'1 1.0
2017-Jun-18 11:30N 37°58' E 023°36'0 1.0
2017-Jun-18 11:00N 37°57' E 023°36'0 0.9
2017-Jun-18 10:30N 37°57' E 023°36'0 0.0
2017-Jun-18 10:00N 37°57' E 023°36'0 0.0
2017-Jun-18 09:30N 37°57' E 023°36'0 0.0
2017-Jun-18 09:00N 37°57' E 023°36'0 0.0
2017-Jun-18 08:30N 37°57' E 023°36'0 0.0
2017-Jun-18 08:00N 37°57' E 023°36'1 1.9
2017-Jun-18 07:30N 37°57' E 023°35'0 0.8
2017-Jun-18 07:00N 37°57' E 023°35'1 1.3
2017-Jun-18 06:30N 37°57' E 023°36'0 0.5
2017-Jun-18 06:00N 37°57' E 023°36'1 2.7
2017-Jun-18 05:30N 37°56' E 023°36'1 2.9
2017-Jun-18 05:00N 37°57' E 023°36'0 0.0
2017-Jun-18 04:30N 37°57' E 023°36'1 1.7
2017-Jun-18 04:00N 37°57' E 023°35'0 0.3
2017-Jun-18 03:31N 37°57' E 023°35'1 1.6
2017-Jun-18 03:00N 37°57' E 023°36'0 0.0
2017-Jun-17 21:31N 37°57' E 023°36'0 0.0
2017-Jun-17 21:30N 37°57' E 023°36'0 0.0
2017-Jun-17 21:00N 37°57' E 023°36'0 0.0
2017-Jun-17 20:30N 37°57' E 023°36'0 0.0
2017-Jun-17 20:00N 37°57' E 023°36'0 0.0
2017-Jun-17 19:30N 37°57' E 023°36'0 0.9
2017-Jun-17 19:00N 37°57' E 023°36'1 2.0
2017-Jun-17 18:30N 37°56' E 023°36'1 1.7
2017-Jun-17 18:00N 37°57' E 023°36'0 0.0
2017-Jun-17 17:30N 37°57' E 023°36'0 0.0
2017-Jun-17 17:00N 37°57' E 023°36'0 0.0
2017-Jun-17 16:30N 37°57' E 023°36'0 0.0
2017-Jun-17 16:00N 37°57' E 023°36'0 0.0
2017-Jun-17 15:30N 37°57' E 023°36'0 0.0
2017-Jun-17 15:00N 37°57' E 023°36'1 2.7
2017-Jun-17 14:30N 37°56' E 023°38'0 0.4
2017-Jun-17 13:30N 37°56' E 023°37'1 2.1
2017-Jun-17 13:00N 37°57' E 023°36'0 0.0
2017-Jun-17 12:30N 37°57' E 023°36'0 0.0
2017-Jun-17 12:00N 37°57' E 023°36'0 0.0
2017-Jun-17 11:30N 37°57' E 023°36'0 0.0
2017-Jun-17 11:00N 37°57' E 023°36'0 0.0
2017-Jun-17 10:30N 37°57' E 023°36'0 0.0
2017-Jun-17 00:01N 37°57' E 023°36'0 0.0
2017-Jun-17 00:00N 37°57' E 023°36'0 0.0
2017-Jun-16 23:30N 37°57' E 023°36'0 0.0
2017-Jun-16 23:00N 37°57' E 023°36'0 0.0
2017-Jun-16 22:30N 37°57' E 023°36'0 0.0
2017-Jun-16 22:00N 37°57' E 023°36'0 0.0
2017-Jun-16 21:30N 37°57' E 023°36'1 1.7
2017-Jun-16 21:00N 37°57' E 023°35'1 1.9
2017-Jun-16 20:30N 37°56' E 023°36'1 1.9
2017-Jun-16 20:00N 37°57' E 023°35'1 1.0
2017-Jun-16 19:30N 37°57' E 023°36'0 0.7
2017-Jun-16 19:00N 37°57' E 023°36'0 0.0
2017-Jun-16 18:30N 37°57' E 023°36'1 1.7
2017-Jun-16 18:01N 37°57' E 023°35'1 2.7
2017-Jun-16 17:30N 37°56' E 023°36'1 2.5
2017-Jun-16 17:00N 37°57' E 023°36'0 0.0
2017-Jun-16 16:30N 37°57' E 023°36'0 0.0
2017-Jun-16 16:00N 37°57' E 023°36'0 0.0
2017-Jun-16 15:30N 37°57' E 023°36'1 2.7
2017-Jun-16 15:01N 37°56' E 023°37'1 0.9
2017-Jun-16 14:00N 37°57' E 023°38'0 0.0
2017-Jun-16 13:29N 37°57' E 023°38'0 0.0
2017-Jun-16 13:00N 37°57' E 023°38'0 0.0
2017-Jun-16 12:30N 37°57' E 023°38'0 0.0
2017-Jun-16 12:00N 37°57' E 023°38'2 3.8
2017-Jun-16 11:30N 37°57' E 023°36'1 1.4
2017-Jun-16 11:00N 37°57' E 023°36'1 1.0
2017-Jun-16 10:30N 37°57' E 023°36'0 0.0
2017-Jun-16 02:17N 37°57' E 023°36'0 0.0
2017-Jun-16 02:01N 37°57' E 023°36'0 0.0
2017-Jun-16 01:30N 37°57' E 023°36'0 0.0
2017-Jun-16 01:01N 37°57' E 023°36'0 0.0
2017-Jun-16 00:30N 37°57' E 023°36'0 0.0
2017-Jun-16 00:00N 37°57' E 023°36'0 0.0
2017-Jun-15 23:31N 37°57' E 023°36'3 6.3
2017-Jun-15 23:00N 37°59' E 023°33'4 7.6
2017-Jun-15 22:30N 38°02' E 023°31'0 0.0
2017-Jun-15 22:01N 38°02' E 023°31'0 0.0
2017-Jun-15 21:30N 38°02' E 023°31'1 1.0
2017-Jun-15 21:00N 38°02' E 023°31'2 3.5
2017-Jun-15 20:31N 38°00' E 023°32'4 7.7
2017-Jun-15 20:00N 37°57' E 023°35'0 0.5
2017-Jun-15 19:30N 37°57' E 023°35'1 1.9
2017-Jun-15 19:01N 37°57' E 023°36'0 0.4
2017-Jun-15 18:30N 37°57' E 023°36'2 3.8
2017-Jun-15 18:00N 37°56' E 023°34'1 1.6
2017-Jun-15 17:31N 37°57' E 023°35'1 2.0
2017-Jun-15 17:00N 37°57' E 023°36'0 0.7
2017-Jun-15 16:30N 37°57' E 023°36'0 0.0
2017-Jun-15 16:01N 37°57' E 023°36'0 0.5
2017-Jun-15 15:30N 37°57' E 023°36'1 2.5
2017-Jun-15 15:00N 37°56' E 023°36'1 2.5
2017-Jun-15 14:31N 37°57' E 023°36'0 0.0
2017-Jun-15 13:30N 37°57' E 023°36'0 0.0
2017-Jun-15 13:01N 37°57' E 023°36'0 0.0
2017-Jun-15 12:30N 37°57' E 023°36'0 0.0
2017-Jun-15 12:00N 37°57' E 023°36'0 0.0
2017-Jun-15 11:30N 37°57' E 023°36'0 0.0
2017-Jun-15 11:01N 37°57' E 023°36'0 0.0
2017-Jun-15 10:30N 37°57' E 023°36'0 0.0
2017-Jun-15 02:56N 37°57' E 023°36'0 0.0
2017-Jun-15 02:30N 37°57' E 023°36'0 0.0
2017-Jun-15 02:00N 37°57' E 023°36'0 0.0
2017-Jun-15 01:30N 37°57' E 023°36'0 0.0
2017-Jun-15 01:00N 37°57' E 023°36'0 0.0
2017-Jun-15 00:30N 37°57' E 023°36'0 0.8
2017-Jun-15 00:00N 37°57' E 023°36'1 1.5
2017-Jun-14 23:30N 37°56' E 023°36'1 1.4
2017-Jun-14 23:00N 37°56' E 023°36'2 3.1
2017-Jun-14 22:30N 37°57' E 023°36'0 0.0
2017-Jun-14 22:00N 37°57' E 023°36'0 0.0
2017-Jun-14 21:30N 37°57' E 023°36'0 0.0
2017-Jun-14 21:00N 37°57' E 023°36'0 0.0
2017-Jun-14 20:30N 37°57' E 023°36'1 1.7
2017-Jun-14 20:00N 37°57' E 023°35'1 1.9
2017-Jun-14 19:30N 37°57' E 023°35'1 2.9
2017-Jun-14 19:00N 37°57' E 023°36'0 0.0
2017-Jun-14 18:30N 37°57' E 023°36'0 0.0
2017-Jun-14 18:00N 37°57' E 023°36'0 0.0
2017-Jun-14 17:30N 37°57' E 023°36'0 0.0
2017-Jun-14 17:00N 37°57' E 023°36'0 0.0
2017-Jun-14 16:30N 37°57' E 023°36'0 0.0
2017-Jun-14 16:00N 37°57' E 023°36'0 0.0
2017-Jun-14 15:30N 37°57' E 023°36'0 0.9
2017-Jun-14 15:00N 37°57' E 023°36'0 0.4
2017-Jun-14 14:00N 37°57' E 023°36'0 0.0
2017-Jun-14 13:30N 37°57' E 023°36'1 1.8
2017-Jun-14 13:00N 37°57' E 023°35'1 1.8
2017-Jun-14 12:30N 37°57' E 023°36'0 0.5
2017-Jun-14 12:00N 37°57' E 023°36'0 0.4
2017-Jun-14 11:30N 37°57' E 023°36'0 0.1
2017-Jun-14 11:00N 37°57' E 023°36'0 0.0
2017-Jun-14 10:30N 37°57' E 023°36'0 0.0
2017-Jun-14 01:19N 37°57' E 023°36'0 0.0
2017-Jun-14 01:00N 37°57' E 023°36'0 0.0
2017-Jun-14 00:30N 37°57' E 023°36'0 0.0
2017-Jun-14 00:00N 37°57' E 023°36'0 0.0
2017-Jun-13 23:31N 37°57' E 023°36'0 0.0
2017-Jun-13 23:00N 37°57' E 023°36'0 0.0
2017-Jun-13 22:30N 37°57' E 023°36'0 0.0
2017-Jun-13 22:00N 37°57' E 023°36'0 0.0
2017-Jun-13 21:31N 37°57' E 023°36'0 0.0
2017-Jun-13 21:01N 37°57' E 023°36'0 0.0
2017-Jun-13 20:30N 37°57' E 023°36'0 0.7
2017-Jun-13 20:01N 37°58' E 023°36'2 3.1
2017-Jun-13 19:30N 37°56' E 023°36'2 3.2
2017-Jun-13 19:00N 37°57' E 023°37'0 0.0
2017-Jun-13 18:30N 37°57' E 023°37'0 0.0
2017-Jun-13 18:00N 37°57' E 023°37'0 0.0
2017-Jun-13 17:31N 37°57' E 023°37'0 0.0
2017-Jun-13 17:01N 37°57' E 023°37'0 0.0
2017-Jun-13 16:31N 37°57' E 023°37'2 3.1
2017-Jun-13 16:00N 37°57' E 023°35'0 0.7
2017-Jun-13 15:31N 37°58' E 023°34'2 3.3
2017-Jun-13 15:00N 37°57' E 023°36'0 0.2
2017-Jun-13 14:30N 37°57' E 023°37'1 0.7
2017-Jun-13 13:31N 37°57' E 023°36'1 2.7
2017-Jun-13 13:01N 37°57' E 023°34'1 1.3
2017-Jun-13 12:31N 37°58' E 023°33'2 3.3
2017-Jun-13 12:00N 37°57' E 023°35'1 2.0
2017-Jun-13 11:30N 37°57' E 023°37'0 0.0
2017-Jun-13 11:01N 37°57' E 023°37'0 0.0
2017-Jun-13 10:30N 37°57' E 023°37'0 0.0
2017-Jun-13 01:08N 37°57' E 023°37'0 0.0
2017-Jun-13 00:59N 37°57' E 023°37'0 0.0
2017-Jun-13 00:30N 37°57' E 023°37'0 0.0
2017-Jun-13 00:00N 37°57' E 023°37'0 0.0
2017-Jun-12 23:30N 37°57' E 023°37'0 0.0
2017-Jun-12 23:00N 37°57' E 023°37'0 0.0
2017-Jun-12 22:30N 37°57' E 023°37'0 0.0
2017-Jun-12 22:00N 37°57' E 023°37'0 0.3
2017-Jun-12 21:30N 37°57' E 023°36'1 1.2
2017-Jun-12 21:00N 37°57' E 023°36'1 2.3
2017-Jun-12 20:30N 37°56' E 023°36'1 2.5
2017-Jun-12 20:00N 37°57' E 023°37'0 0.0
2017-Jun-12 19:30N 37°57' E 023°37'0 0.0
2017-Jun-12 19:00N 37°57' E 023°37'0 0.0
2017-Jun-12 18:30N 37°57' E 023°37'0 0.0
2017-Jun-12 18:00N 37°57' E 023°37'0 0.9
2017-Jun-12 17:30N 37°57' E 023°36'0 0.1
2017-Jun-12 17:00N 37°57' E 023°36'3 5.4
2017-Jun-12 16:30N 37°58' E 023°33'4 7.2
2017-Jun-12 16:01N 38°02' E 023°32'3 5.2
2017-Jun-12 15:30N 38°01' E 023°36'0 0.0
2017-Jun-12 15:00N 38°01' E 023°36'1 2.0
2017-Jun-12 14:30N 38°01' E 023°35'  
Track history (hours):
 
Tides and Currents Weather Stations Pressure Air Temp Water Temp Dewpoint Dewpoint Depression Visibility Wind Speed Wind Dir Waves Ship Positions

Ifestos I

Last reported at 2017-Jun-22 14:22 UTC. Time now 2017-Jun-22 22:26 UTC.
Position N 37°57' E 023°36'.

Length 30 m.

Type: Tug. MMSI: 237070500.

Date/timePositionNaut miles runAvg speedWind from/ knotsBaromVisibWave heightAir tempDewpointWater temp
2017-Jun-22 14:22N 37°57' E 023°36'0 0.0
2017-Jun-22 13:30N 37°57' E 023°36'0 0.0
2017-Jun-22 13:00N 37°57' E 023°36'0 0.0
2017-Jun-22 12:30N 37°57' E 023°36'0 0.0
2017-Jun-22 12:00N 37°57' E 023°36'0 0.0
2017-Jun-22 11:30N 37°57' E 023°36'0 0.0
2017-Jun-22 11:00N 37°57' E 023°36'0 0.6
2017-Jun-22 10:30N 37°58' E 023°37'0 0.9
2017-Jun-22 10:00N 37°57' E 023°36'0 0.4
2017-Jun-22 09:30N 37°57' E 023°36'0 0.5
2017-Jun-22 09:00N 37°57' E 023°36'0 0.0
2017-Jun-22 08:30N 37°57' E 023°36'0 0.0
2017-Jun-22 08:00N 37°57' E 023°36'0 0.0
2017-Jun-22 07:30N 37°57' E 023°36'0 0.0
2017-Jun-22 07:00N 37°57' E 023°36'0 0.0
2017-Jun-22 06:30N 37°57' E 023°36'0 0.7
2017-Jun-22 06:00N 37°58' E 023°36'1 2.8
2017-Jun-22 05:30N 37°56' E 023°36'1 2.8
2017-Jun-22 05:00N 37°58' E 023°36'2 3.2
2017-Jun-22 04:30N 37°56' E 023°36'1 2.2
2017-Jun-22 04:00N 37°57' E 023°35'0 0.6
2017-Jun-22 03:30N 37°57' E 023°35'1 1.6
2017-Jun-22 03:00N 37°57' E 023°36'0 0.0
2017-Jun-22 02:30N 37°57' E 023°36'0 0.0
2017-Jun-22 02:00N 37°57' E 023°36'0 0.0
2017-Jun-21 14:57N 37°57' E 023°36'0 0.0
2017-Jun-21 14:30N 37°57' E 023°36'0 0.0
2017-Jun-21 13:30N 37°57' E 023°36'0 0.0
2017-Jun-21 13:00N 37°57' E 023°36'0 0.0
2017-Jun-21 12:30N 37°57' E 023°36'0 0.0
2017-Jun-21 12:00N 37°57' E 023°36'0 0.0
2017-Jun-21 11:30N 37°57' E 023°36'1 1.4
2017-Jun-21 11:00N 37°57' E 023°37'0 0.3
2017-Jun-21 10:30N 37°57' E 023°37'0 0.0
2017-Jun-21 10:00N 37°57' E 023°37'0 0.0
2017-Jun-21 09:30N 37°57' E 023°37'0 0.0
2017-Jun-21 09:00N 37°57' E 023°37'0 0.0
2017-Jun-21 08:30N 37°57' E 023°37'0 0.0
2017-Jun-21 08:00N 37°57' E 023°37'0 0.1
2017-Jun-21 07:30N 37°57' E 023°37'0 0.0
2017-Jun-21 07:00N 37°57' E 023°37'0 0.0
2017-Jun-21 06:30N 37°57' E 023°37'0 0.0
2017-Jun-21 06:00N 37°57' E 023°37'0 0.8
2017-Jun-21 05:30N 37°57' E 023°36'0 1.0
2017-Jun-21 05:00N 37°57' E 023°36'1 1.1
2017-Jun-21 04:30N 37°57' E 023°36'0 0.0
2017-Jun-21 04:00N 37°57' E 023°36'0 0.1
2017-Jun-21 03:30N 37°57' E 023°36'0 0.0
2017-Jun-21 03:00N 37°57' E 023°36'0 0.0
2017-Jun-21 02:30N 37°57' E 023°36'0 0.0
2017-Jun-21 02:00N 37°57' E 023°36'0 0.0
2017-Jun-21 01:30N 37°57' E 023°36'0 0.0
2017-Jun-21 01:00N 37°57' E 023°36'0 0.0
2017-Jun-21 00:30N 37°57' E 023°36'0 0.0
2017-Jun-21 00:00N 37°57' E 023°36'0 0.0
2017-Jun-20 23:30N 37°57' E 023°36'0 0.0
2017-Jun-20 23:00N 37°57' E 023°36'0 0.0
2017-Jun-20 22:30N 37°57' E 023°36'0 0.0
2017-Jun-20 22:00N 37°57' E 023°36'0 0.0
2017-Jun-20 21:30N 37°57' E 023°36'0 0.0
2017-Jun-20 21:00N 37°57' E 023°36'0 0.0
2017-Jun-20 20:30N 37°57' E 023°36'0 0.0
2017-Jun-20 20:00N 37°57' E 023°36'0 0.0
2017-Jun-20 19:30N 37°57' E 023°36'3 6.4
2017-Jun-20 19:00N 37°59' E 023°33'4 8.2
2017-Jun-20 18:30N 38°00' E 023°28'4 7.4
2017-Jun-20 18:00N 37°58' E 023°25'2 3.4
2017-Jun-20 17:30N 37°58' E 023°23'0 0.0
2017-Jun-20 17:00N 37°58' E 023°23'2 3.3
2017-Jun-20 16:30N 37°59' E 023°25'4 8.3
2017-Jun-20 16:01N 38°01' E 023°30'4 7.1
2017-Jun-20 15:30N 37°58' E 023°33'3 5.6
2017-Jun-20 14:59N 37°57' E 023°36'0 0.0
2017-Jun-20 14:28N 37°57' E 023°36'0 0.0
2017-Jun-20 13:30N 37°57' E 023°36'0 0.0
2017-Jun-20 13:00N 37°57' E 023°36'0 0.0
2017-Jun-20 12:27N 37°57' E 023°36'1 2.0
2017-Jun-20 12:00N 37°57' E 023°35'1 2.1
2017-Jun-20 11:30N 37°56' E 023°35'1 2.3
2017-Jun-20 11:00N 37°56' E 023°36'2 2.4
2017-Jun-20 10:22N 37°57' E 023°36'0 0.0
2017-Jun-20 10:00N 37°57' E 023°36'0 0.0
2017-Jun-20 09:25N 37°57' E 023°36'3 7.0
2017-Jun-20 09:00N 37°58' E 023°33'2 3.6
2017-Jun-20 08:30N 37°60' E 023°34'0 0.5
2017-Jun-20 08:00N 37°60' E 023°34'0 0.2
2017-Jun-20 07:30N 37°60' E 023°34'2 3.4
2017-Jun-20 07:00N 37°58' E 023°33'3 5.5
2017-Jun-20 06:30N 37°57' E 023°36'0 0.8
2017-Jun-20 05:57N 37°57' E 023°36'0 0.0
2017-Jun-20 05:26N 37°57' E 023°36'0 0.0
2017-Jun-20 04:59N 37°57' E 023°36'1 2.0
2017-Jun-20 04:30N 37°57' E 023°35'0 0.4
2017-Jun-20 04:00N 37°57' E 023°35'0 0.6
2017-Jun-20 03:30N 37°57' E 023°35'1 1.8
2017-Jun-20 03:00N 37°57' E 023°36'0 0.0
2017-Jun-18 21:57N 37°57' E 023°36'0 0.0
2017-Jun-18 21:30N 37°57' E 023°36'0 0.0
2017-Jun-18 21:00N 37°57' E 023°36'0 0.0
2017-Jun-18 20:30N 37°57' E 023°36'0 0.0
2017-Jun-18 20:00N 37°57' E 023°36'0 0.0
2017-Jun-18 19:30N 37°57' E 023°36'0 0.9
2017-Jun-18 19:00N 37°57' E 023°36'0 0.1
2017-Jun-18 18:30N 37°57' E 023°36'1 2.0
2017-Jun-18 18:00N 37°56' E 023°36'1 1.8
2017-Jun-18 17:30N 37°57' E 023°35'0 0.6
2017-Jun-18 17:00N 37°57' E 023°35'1 1.8
2017-Jun-18 16:30N 37°57' E 023°36'0 0.0
2017-Jun-18 16:00N 37°57' E 023°36'0 0.0
2017-Jun-18 15:30N 37°57' E 023°36'0 0.0
2017-Jun-18 15:00N 37°57' E 023°36'0 0.0
2017-Jun-18 14:30N 37°57' E 023°36'1 1.5
2017-Jun-18 14:00N 37°57' E 023°35'1 1.5
2017-Jun-18 13:30N 37°57' E 023°36'0 0.0
2017-Jun-18 13:00N 37°57' E 023°36'0 0.0
2017-Jun-18 12:30N 37°57' E 023°36'0 0.9
2017-Jun-18 12:00N 37°57' E 023°36'1 1.0
2017-Jun-18 11:30N 37°58' E 023°36'0 1.0
2017-Jun-18 11:00N 37°57' E 023°36'0 0.9
2017-Jun-18 10:30N 37°57' E 023°36'0 0.0
2017-Jun-18 10:00N 37°57' E 023°36'0 0.0
2017-Jun-18 09:30N 37°57' E 023°36'0 0.0
2017-Jun-18 09:00N 37°57' E 023°36'0 0.0
2017-Jun-18 08:30N 37°57' E 023°36'0 0.0
2017-Jun-18 08:00N 37°57' E 023°36'1 1.9
2017-Jun-18 07:30N 37°57' E 023°35'0 0.8
2017-Jun-18 07:00N 37°57' E 023°35'1 1.3
2017-Jun-18 06:30N 37°57' E 023°36'0 0.5
2017-Jun-18 06:00N 37°57' E 023°36'1 2.7
2017-Jun-18 05:30N 37°56' E 023°36'1 2.9
2017-Jun-18 05:00N 37°57' E 023°36'0 0.0
2017-Jun-18 04:30N 37°57' E 023°36'1 1.7
2017-Jun-18 04:00N 37°57' E 023°35'0 0.3
2017-Jun-18 03:31N 37°57' E 023°35'1 1.6
2017-Jun-18 03:00N 37°57' E 023°36'0 0.0
2017-Jun-17 21:31N 37°57' E 023°36'0 0.0
2017-Jun-17 21:30N 37°57' E 023°36'0 0.0
2017-Jun-17 21:00N 37°57' E 023°36'0 0.0
2017-Jun-17 20:30N 37°57' E 023°36'0 0.0
2017-Jun-17 20:00N 37°57' E 023°36'0 0.0
2017-Jun-17 19:30N 37°57' E 023°36'0 0.9
2017-Jun-17 19:00N 37°57' E 023°36'1 2.0
2017-Jun-17 18:30N 37°56' E 023°36'1 1.7
2017-Jun-17 18:00N 37°57' E 023°36'0 0.0
2017-Jun-17 17:30N 37°57' E 023°36'0 0.0
2017-Jun-17 17:00N 37°57' E 023°36'0 0.0
2017-Jun-17 16:30N 37°57' E 023°36'0 0.0
2017-Jun-17 16:00N 37°57' E 023°36'0 0.0
2017-Jun-17 15:30N 37°57' E 023°36'0 0.0
2017-Jun-17 15:00N 37°57' E 023°36'1 2.7
2017-Jun-17 14:30N 37°56' E 023°38'0 0.4
2017-Jun-17 13:30N 37°56' E 023°37'1 2.1
2017-Jun-17 13:00N 37°57' E 023°36'0 0.0
2017-Jun-17 12:30N 37°57' E 023°36'0 0.0
2017-Jun-17 12:00N 37°57' E 023°36'0 0.0
2017-Jun-17 11:30N 37°57' E 023°36'0 0.0
2017-Jun-17 11:00N 37°57' E 023°36'0 0.0
2017-Jun-17 10:30N 37°57' E 023°36'0 0.0
2017-Jun-17 00:01N 37°57' E 023°36'0 0.0
2017-Jun-17 00:00N 37°57' E 023°36'0 0.0
2017-Jun-16 23:30N 37°57' E 023°36'0 0.0
2017-Jun-16 23:00N 37°57' E 023°36'0 0.0
2017-Jun-16 22:30N 37°57' E 023°36'0 0.0
2017-Jun-16 22:00N 37°57' E 023°36'0 0.0
2017-Jun-16 21:30N 37°57' E 023°36'1 1.7
2017-Jun-16 21:00N 37°57' E 023°35'1 1.9
2017-Jun-16 20:30N 37°56' E 023°36'1 1.9
2017-Jun-16 20:00N 37°57' E 023°35'1 1.0
2017-Jun-16 19:30N 37°57' E 023°36'0 0.7
2017-Jun-16 19:00N 37°57' E 023°36'0 0.0
2017-Jun-16 18:30N 37°57' E 023°36'1 1.7
2017-Jun-16 18:01N 37°57' E 023°35'1 2.7
2017-Jun-16 17:30N 37°56' E 023°36'1 2.5
2017-Jun-16 17:00N 37°57' E 023°36'0 0.0
2017-Jun-16 16:30N 37°57' E 023°36'0 0.0
2017-Jun-16 16:00N 37°57' E 023°36'0 0.0
2017-Jun-16 15:30N 37°57' E 023°36'1 2.7
2017-Jun-16 15:01N 37°56' E 023°37'1 0.9
2017-Jun-16 14:00N 37°57' E 023°38'0 0.0
2017-Jun-16 13:29N 37°57' E 023°38'0 0.0
2017-Jun-16 13:00N 37°57' E 023°38'0 0.0
2017-Jun-16 12:30N 37°57' E 023°38'0 0.0
2017-Jun-16 12:00N 37°57' E 023°38'2 3.8
2017-Jun-16 11:30N 37°57' E 023°36'1 1.4
2017-Jun-16 11:00N 37°57' E 023°36'1 1.0
2017-Jun-16 10:30N 37°57' E 023°36'0 0.0
2017-Jun-16 02:17N 37°57' E 023°36'0 0.0
2017-Jun-16 02:01N 37°57' E 023°36'0 0.0
2017-Jun-16 01:30N 37°57' E 023°36'0 0.0
2017-Jun-16 01:01N 37°57' E 023°36'0 0.0
2017-Jun-16 00:30N 37°57' E 023°36'0 0.0
2017-Jun-16 00:00N 37°57' E 023°36'0 0.0
2017-Jun-15 23:31N 37°57' E 023°36'3 6.3
2017-Jun-15 23:00N 37°59' E 023°33'4 7.6
2017-Jun-15 22:30N 38°02' E 023°31'0 0.0
2017-Jun-15 22:01N 38°02' E 023°31'0 0.0
2017-Jun-15 21:30N 38°02' E 023°31'1 1.0
2017-Jun-15 21:00N 38°02' E 023°31'2 3.5
2017-Jun-15 20:31N 38°00' E 023°32'4 7.7
2017-Jun-15 20:00N 37°57' E 023°35'0 0.5
2017-Jun-15 19:30N 37°57' E 023°35'1 1.9
2017-Jun-15 19:01N 37°57' E 023°36'0 0.4
2017-Jun-15 18:30N 37°57' E 023°36'2 3.8
2017-Jun-15 18:00N 37°56' E 023°34'1 1.6
2017-Jun-15 17:31N 37°57' E 023°35'1 2.0
2017-Jun-15 17:00N 37°57' E 023°36'0 0.7
2017-Jun-15 16:30N 37°57' E 023°36'0 0.0
2017-Jun-15 16:01N 37°57' E 023°36'0 0.5
2017-Jun-15 15:30N 37°57' E 023°36'1 2.5
2017-Jun-15 15:00N 37°56' E 023°36'1 2.5
2017-Jun-15 14:31N 37°57' E 023°36'0 0.0
2017-Jun-15 13:30N 37°57' E 023°36'0 0.0
2017-Jun-15 13:01N 37°57' E 023°36'0 0.0
2017-Jun-15 12:30N 37°57' E 023°36'0 0.0
2017-Jun-15 12:00N 37°57' E 023°36'0 0.0
2017-Jun-15 11:30N 37°57' E 023°36'0 0.0
2017-Jun-15 11:01N 37°57' E 023°36'0 0.0
2017-Jun-15 10:30N 37°57' E 023°36'0 0.0
2017-Jun-15 02:56N 37°57' E 023°36'0 0.0
2017-Jun-15 02:30N 37°57' E 023°36'0 0.0
2017-Jun-15 02:00N 37°57' E 023°36'0 0.0
2017-Jun-15 01:30N 37°57' E 023°36'0 0.0
2017-Jun-15 01:00N 37°57' E 023°36'0 0.0
2017-Jun-15 00:30N 37°57' E 023°36'0 0.8
2017-Jun-15 00:00N 37°57' E 023°36'1 1.5
2017-Jun-14 23:30N 37°56' E 023°36'1 1.4
2017-Jun-14 23:00N 37°56' E 023°36'2 3.1
2017-Jun-14 22:30N 37°57' E 023°36'0 0.0
2017-Jun-14 22:00N 37°57' E 023°36'0 0.0
2017-Jun-14 21:30N 37°57' E 023°36'0 0.0
2017-Jun-14 21:00N 37°57' E 023°36'0 0.0
2017-Jun-14 20:30N 37°57' E 023°36'1 1.7
2017-Jun-14 20:00N 37°57' E 023°35'1 1.9
2017-Jun-14 19:30N 37°57' E 023°35'1 2.9
2017-Jun-14 19:00N 37°57' E 023°36'0 0.0
2017-Jun-14 18:30N 37°57' E 023°36'0 0.0
2017-Jun-14 18:00N 37°57' E 023°36'0 0.0
2017-Jun-14 17:30N 37°57' E 023°36'0 0.0
2017-Jun-14 17:00N 37°57' E 023°36'0 0.0
2017-Jun-14 16:30N 37°57' E 023°36'0 0.0
2017-Jun-14 16:00N 37°57' E 023°36'0 0.0
2017-Jun-14 15:30N 37°57' E 023°36'0 0.9
2017-Jun-14 15:00N 37°57' E 023°36'0 0.4
2017-Jun-14 14:00N 37°57' E 023°36'0 0.0
2017-Jun-14 13:30N 37°57' E 023°36'1 1.8
2017-Jun-14 13:00N 37°57' E 023°35'1 1.8
2017-Jun-14 12:30N 37°57' E 023°36'0 0.5
2017-Jun-14 12:00N 37°57' E 023°36'0 0.4
2017-Jun-14 11:30N 37°57' E 023°36'0 0.1
2017-Jun-14 11:00N 37°57' E 023°36'0 0.0
2017-Jun-14 10:30N 37°57' E 023°36'0 0.0
2017-Jun-14 01:19N 37°57' E 023°36'0 0.0
2017-Jun-14 01:00N 37°57' E 023°36'0 0.0
2017-Jun-14 00:30N 37°57' E 023°36'0 0.0
2017-Jun-14 00:00N 37°57' E 023°36'0 0.0
2017-Jun-13 23:31N 37°57' E 023°36'0 0.0
2017-Jun-13 23:00N 37°57' E 023°36'0 0.0
2017-Jun-13 22:30N 37°57' E 023°36'0 0.0
2017-Jun-13 22:00N 37°57' E 023°36'0 0.0
2017-Jun-13 21:31N 37°57' E 023°36'0 0.0
2017-Jun-13 21:01N 37°57' E 023°36'0 0.0
2017-Jun-13 20:30N 37°57' E 023°36'0 0.7
2017-Jun-13 20:01N 37°58' E 023°36'2 3.1
2017-Jun-13 19:30N 37°56' E 023°36'2 3.2
2017-Jun-13 19:00N 37°57' E 023°37'0 0.0
2017-Jun-13 18:30N 37°57' E 023°37'0 0.0
2017-Jun-13 18:00N 37°57' E 023°37'0 0.0
2017-Jun-13 17:31N 37°57' E 023°37'0 0.0
2017-Jun-13 17:01N 37°57' E 023°37'0 0.0
2017-Jun-13 16:31N 37°57' E 023°37'2 3.1
2017-Jun-13 16:00N 37°57' E 023°35'0 0.7
2017-Jun-13 15:31N 37°58' E 023°34'2 3.3
2017-Jun-13 15:00N 37°57' E 023°36'0 0.2
2017-Jun-13 14:30N 37°57' E 023°37'1 0.7
2017-Jun-13 13:31N 37°57' E 023°36'1 2.7
2017-Jun-13 13:01N 37°57' E 023°34'1 1.3
2017-Jun-13 12:31N 37°58' E 023°33'2 3.3
2017-Jun-13 12:00N 37°57' E 023°35'1 2.0
2017-Jun-13 11:30N 37°57' E 023°37'0 0.0
2017-Jun-13 11:01N 37°57' E 023°37'0 0.0
2017-Jun-13 10:30N 37°57' E 023°37'0 0.0
2017-Jun-13 01:08N 37°57' E 023°37'0 0.0
2017-Jun-13 00:59N 37°57' E 023°37'0 0.0
2017-Jun-13 00:30N 37°57' E 023°37'0 0.0
2017-Jun-13 00:00N 37°57' E 023°37'0 0.0
2017-Jun-12 23:30N 37°57' E 023°37'0 0.0
2017-Jun-12 23:00N 37°57' E 023°37'0 0.0
2017-Jun-12 22:30N 37°57' E 023°37'0 0.0
2017-Jun-12 22:00N 37°57' E 023°37'0 0.3
2017-Jun-12 21:30N 37°57' E 023°36'1 1.2
2017-Jun-12 21:00N 37°57' E 023°36'1 2.3
2017-Jun-12 20:30N 37°56' E 023°36'1 2.5
2017-Jun-12 20:00N 37°57' E 023°37'0 0.0
2017-Jun-12 19:30N 37°57' E 023°37'0 0.0
2017-Jun-12 19:00N 37°57' E 023°37'0 0.0
2017-Jun-12 18:30N 37°57' E 023°37'0 0.0
2017-Jun-12 18:00N 37°57' E 023°37'0 0.9
2017-Jun-12 17:30N 37°57' E 023°36'0 0.1
2017-Jun-12 17:00N 37°57' E 023°36'3 5.4
2017-Jun-12 16:30N 37°58' E 023°33'4 7.2
2017-Jun-12 16:01N 38°02' E 023°32'3 5.2
2017-Jun-12 15:30N 38°01' E 023°36'0 0.0
2017-Jun-12 15:00N 38°01' E 023°36'1 2.0
2017-Jun-12 14:30N 38°01' E 023°35'  

Dump ship's entire track history